createdAt,value
2022-09-15T00:02:11.609Z,4.40
2022-09-15T00:04:42.434Z,4.00
2022-09-15T00:07:14.987Z,3.60
2022-09-15T00:09:45.618Z,2.80
2022-09-15T00:12:23.596Z,3.20
2022-09-15T00:15:03.866Z,6.00
2022-09-15T00:17:41.906Z,3.40
2022-09-15T00:20:15.722Z,3.60
2022-09-15T00:22:46.948Z,2.10
2022-09-15T00:25:17.781Z,2.00
2022-09-15T00:28:01.400Z,3.90
2022-09-15T00:31:03.268Z,3.60
2022-09-15T00:36:42.609Z,4.80
2022-09-15T00:39:28.005Z,4.50
2022-09-15T00:41:55.777Z,3.70
2022-09-15T00:44:56.132Z,3.90
2022-09-15T00:47:53.071Z,2.40
2022-09-15T00:50:54.328Z,2.80
2022-09-15T00:53:32.119Z,2.70
2022-09-15T00:56:32.964Z,2.80
2022-09-15T00:59:17.413Z,2.00
2022-09-15T01:02:29.999Z,2.10
2022-09-15T01:05:13.126Z,3.20
2022-09-15T01:07:51.579Z,3.50
2022-09-15T01:14:11.918Z,3.80
2022-09-15T01:17:13.943Z,2.50
2022-09-15T01:20:25.116Z,3.50
2022-09-15T01:23:27.842Z,2.80
2022-09-15T01:26:34.085Z,4.00
2022-09-15T01:29:46.400Z,3.80
2022-09-15T01:33:16.011Z,2.50
2022-09-15T01:36:10.668Z,3.30
2022-09-15T01:39:36.281Z,4.10
2022-09-15T01:42:13.175Z,5.00
2022-09-15T01:44:49.912Z,7.20
2022-09-15T01:47:27.740Z,3.80
2022-09-15T01:50:22.901Z,4.80
2022-09-15T01:52:58.383Z,4.60
2022-09-15T01:55:51.900Z,3.50
2022-09-15T01:58:29.028Z,6.20
2022-09-15T02:01:57.604Z,4.40
2022-09-15T02:04:30.380Z,6.10
2022-09-15T02:07:31.762Z,4.20
2022-09-15T02:10:13.751Z,2.90
2022-09-15T02:12:50.867Z,4.00
2022-09-15T02:15:30.254Z,4.10
2022-09-15T02:18:17.690Z,7.10
2022-09-15T02:21:12.889Z,4.10
2022-09-15T02:24:29.080Z,4.40
2022-09-15T02:27:50.320Z,3.20
2022-09-15T02:30:22.441Z,5.70
2022-09-15T02:33:07.537Z,9.60
2022-09-15T02:35:50.095Z,11.90
2022-09-15T02:38:22.950Z,5.50
2022-09-15T02:41:07.661Z,5.50
2022-09-15T02:43:38.697Z,4.50
2022-09-15T02:48:52.266Z,4.20
2022-09-15T02:51:19.756Z,5.10
2022-09-15T02:54:00.320Z,5.00
2022-09-15T02:56:31.308Z,5.60
2022-09-15T02:59:02.973Z,4.60
2022-09-15T03:02:00.482Z,4.30
2022-09-15T03:04:40.177Z,2.60
2022-09-15T03:07:16.105Z,3.50
2022-09-15T03:09:45.118Z,3.30
2022-09-15T03:12:27.880Z,4.80
2022-09-15T03:14:57.385Z,3.30
2022-09-15T03:17:36.403Z,3.10
2022-09-15T03:20:30.370Z,2.40
2022-09-15T03:23:12.585Z,4.20
2022-09-15T03:25:43.113Z,2.90
2022-09-15T03:28:16.042Z,2.80
2022-09-15T03:30:48.218Z,3.20
2022-09-15T03:33:23.465Z,4.00
2022-09-15T03:35:58.882Z,3.90
2022-09-15T03:38:33.680Z,2.10
2022-09-15T03:41:33.509Z,2.70
2022-09-15T03:44:06.692Z,3.00
2022-09-15T03:46:36.811Z,3.70
2022-09-15T03:49:04.557Z,3.70
2022-09-15T03:51:44.336Z,2.90
2022-09-15T03:54:17.701Z,4.40
2022-09-15T03:56:49.137Z,2.00
2022-09-15T03:59:30.563Z,2.70
2022-09-15T04:02:23.699Z,3.90
2022-09-15T04:05:43.712Z,4.30
2022-09-15T04:08:15.033Z,3.70
2022-09-15T04:10:55.196Z,4.10
2022-09-15T04:13:28.863Z,5.10
2022-09-15T04:16:28.455Z,6.10
2022-09-15T04:19:10.196Z,5.00
2022-09-15T04:21:45.879Z,4.60
2022-09-15T04:24:18.823Z,4.60
2022-09-15T04:26:51.174Z,4.40
2022-09-15T04:29:24.823Z,4.20
2022-09-15T04:32:06.006Z,5.10
2022-09-15T04:34:41.381Z,4.30
2022-09-15T04:37:17.306Z,3.70
2022-09-15T04:39:45.287Z,3.90
2022-09-15T04:42:26.974Z,3.50
2022-09-15T04:44:57.305Z,3.70
2022-09-15T04:47:33.234Z,2.30
2022-09-15T04:50:14.746Z,3.10
2022-09-15T04:52:45.470Z,3.60
2022-09-15T04:55:41.827Z,4.00
2022-09-15T04:58:13.047Z,4.30
2022-09-15T05:00:45.050Z,6.30
2022-09-15T05:03:18.942Z,3.40
2022-09-15T05:05:47.689Z,4.50
2022-09-15T05:08:17.877Z,3.80
2022-09-15T05:10:48.305Z,4.10
2022-09-15T05:13:22.238Z,5.00
2022-09-15T05:15:53.120Z,5.20
2022-09-15T05:18:41.093Z,5.80
2022-09-15T05:21:11.673Z,4.50
2022-09-15T05:23:40.439Z,7.90
2022-09-15T05:26:12.023Z,6.00
2022-09-15T05:28:41.240Z,3.60
2022-09-15T05:31:19.800Z,5.10
2022-09-15T05:33:50.731Z,3.90
2022-09-15T05:36:25.195Z,7.30
2022-09-15T05:38:53.504Z,5.20
2022-09-15T05:41:30.457Z,4.60
2022-09-15T05:43:58.543Z,5.60
2022-09-15T05:46:32.274Z,5.10
2022-09-15T05:48:59.832Z,3.50
2022-09-15T05:51:30.400Z,4.80
2022-09-15T05:54:00.758Z,4.00
2022-09-15T05:56:28.383Z,5.60
2022-09-15T05:58:56.332Z,6.00
2022-09-15T06:01:37.112Z,4.10
2022-09-15T06:04:08.577Z,5.30
2022-09-15T06:06:39.565Z,4.40
2022-09-15T06:11:36.286Z,4.40
2022-09-15T06:14:03.909Z,4.10
2022-09-15T06:17:21.169Z,4.20
2022-09-15T06:20:17.444Z,6.20
2022-09-15T06:23:31.286Z,4.00
2022-09-15T06:26:40.587Z,5.20
2022-09-15T06:29:23.548Z,4.50
2022-09-15T06:32:02.865Z,5.20
2022-09-15T06:34:36.505Z,4.30
2022-09-15T06:37:10.042Z,7.50
2022-09-15T06:39:43.169Z,6.80
2022-09-15T06:42:23.921Z,4.80
2022-09-15T06:45:06.252Z,3.90
2022-09-15T06:47:44.504Z,5.30
2022-09-15T06:50:24.467Z,5.30
2022-09-15T06:52:54.374Z,7.40
2022-09-15T06:55:24.798Z,6.40
2022-09-15T06:58:06.267Z,7.70
2022-09-15T07:00:39.313Z,6.80
2022-09-15T07:03:10.207Z,6.80
2022-09-15T07:05:44.819Z,5.60
2022-09-15T07:08:15.710Z,5.70
2022-09-15T07:10:48.929Z,6.60
2022-09-15T07:13:16.696Z,5.20
2022-09-15T07:15:54.831Z,5.10
2022-09-15T07:18:33.812Z,4.80
2022-09-15T07:21:09.345Z,5.30
2022-09-15T07:23:39.235Z,7.00
2022-09-15T07:26:14.021Z,6.80
2022-09-15T07:28:50.117Z,7.60
2022-09-15T07:31:21.862Z,7.40
2022-09-15T07:34:12.612Z,6.30
2022-09-15T07:36:41.122Z,5.90
2022-09-15T07:39:16.485Z,5.90
2022-09-15T07:41:47.366Z,5.10
2022-09-15T07:46:54.070Z,7.20
2022-09-15T07:49:24.593Z,5.80
2022-09-15T07:51:56.803Z,5.30
2022-09-15T07:54:43.250Z,5.80
2022-09-15T07:57:25.690Z,6.50
2022-09-15T07:59:58.033Z,5.50
2022-09-15T08:02:25.416Z,6.50
2022-09-15T08:05:00.246Z,6.40
2022-09-15T08:07:40.142Z,6.90
2022-09-15T08:10:10.219Z,7.60
2022-09-15T08:12:45.034Z,6.30
2022-09-15T08:15:25.080Z,5.50
2022-09-15T08:18:06.682Z,7.20
2022-09-15T08:21:01.778Z,6.40
2022-09-15T08:23:35.060Z,3.80
2022-09-15T08:26:02.357Z,7.70
2022-09-15T08:28:35.396Z,5.70
2022-09-15T08:31:06.893Z,9.10
2022-09-15T08:33:45.513Z,11.00
2022-09-15T08:36:21.211Z,9.30
2022-09-15T08:38:54.142Z,10.40
2022-09-15T08:41:25.733Z,6.80
2022-09-15T08:44:22.663Z,7.50
2022-09-15T08:47:21.477Z,4.50
2022-09-15T08:50:31.949Z,7.80
2022-09-15T08:53:13.269Z,5.50
2022-09-15T08:55:58.414Z,7.90
2022-09-15T08:58:35.120Z,6.90
2022-09-15T09:01:18.654Z,5.50
2022-09-15T09:04:42.954Z,5.30
2022-09-15T09:07:53.318Z,5.80
2022-09-15T09:11:00.761Z,6.60
2022-09-15T09:14:20.203Z,4.40
2022-09-15T09:17:43.904Z,4.40
2022-09-15T09:20:27.750Z,4.90
2022-09-15T09:22:56.045Z,3.50
2022-09-15T09:25:31.328Z,6.40
2022-09-15T09:28:03.523Z,5.40
2022-09-15T09:30:43.497Z,5.10
2022-09-15T09:33:29.962Z,3.40
2022-09-15T09:36:18.775Z,5.50
2022-09-15T09:38:53.622Z,3.30
2022-09-15T09:41:26.891Z,5.10
2022-09-15T09:44:20.491Z,4.20
2022-09-15T09:47:21.595Z,5.10
2022-09-15T09:49:53.101Z,6.60
2022-09-15T09:52:36.492Z,5.90
2022-09-15T09:55:41.695Z,5.50
2022-09-15T09:58:42.485Z,6.40
2022-09-15T10:01:20.071Z,6.90
2022-09-15T10:04:19.295Z,3.40
2022-09-15T10:06:50.099Z,3.50
2022-09-15T10:10:18.674Z,5.50
2022-09-15T10:13:55.795Z,3.20
2022-09-15T10:16:27.946Z,3.80
2022-09-15T10:18:59.454Z,4.90
2022-09-15T10:21:34.176Z,3.60
2022-09-15T10:24:34.313Z,6.10
2022-09-15T10:27:24.389Z,5.70
2022-09-15T10:29:55.797Z,3.20
2022-09-15T10:32:28.471Z,4.10
2022-09-15T10:35:10.427Z,5.50
2022-09-15T10:37:44.642Z,5.70
2022-09-15T10:40:38.612Z,4.30
2022-09-15T10:43:19.395Z,8.50
2022-09-15T10:45:51.478Z,4.70
2022-09-15T10:48:52.177Z,5.50
2022-09-15T10:54:38.705Z,5.50
2022-09-15T10:57:34.132Z,4.30
2022-09-15T11:00:12.978Z,4.90
2022-09-15T11:03:05.326Z,6.20
2022-09-15T11:05:45.122Z,7.00
2022-09-15T11:08:22.796Z,3.40
2022-09-15T11:11:31.828Z,3.70
2022-09-15T11:14:04.799Z,5.30
2022-09-15T11:16:52.998Z,3.90
2022-09-15T11:19:43.684Z,4.00
2022-09-15T11:22:17.255Z,3.60
2022-09-15T11:25:02.921Z,4.10
2022-09-15T11:27:51.338Z,3.50
2022-09-15T11:30:32.836Z,4.90
2022-09-15T11:33:25.453Z,5.00
2022-09-15T11:36:30.827Z,4.80
2022-09-15T11:39:18.707Z,3.20
2022-09-15T11:41:56.575Z,3.70
2022-09-15T11:44:42.652Z,3.60
2022-09-15T11:47:51.061Z,5.50
2022-09-15T11:53:26.624Z,4.40
2022-09-15T11:56:16.447Z,4.60
2022-09-15T11:59:22.654Z,3.50
2022-09-15T12:01:56.825Z,5.00
2022-09-15T12:04:31.003Z,3.70
2022-09-15T12:07:14.751Z,4.00
2022-09-15T12:09:43.574Z,2.40
2022-09-15T12:12:18.492Z,3.30
2022-09-15T12:14:55.494Z,3.50
2022-09-15T12:17:45.371Z,3.00
2022-09-15T12:20:53.527Z,2.90
2022-09-15T12:24:03.278Z,3.70
2022-09-15T12:26:31.040Z,4.10
2022-09-15T12:29:25.459Z,3.90
2022-09-15T12:32:30.201Z,3.20
2022-09-15T12:35:16.080Z,3.90
2022-09-15T12:37:56.541Z,3.00
2022-09-15T12:40:57.059Z,6.00
2022-09-15T12:43:31.830Z,3.40
2022-09-15T12:46:12.797Z,6.00
2022-09-15T12:48:46.700Z,3.20
2022-09-15T12:51:25.262Z,3.70
2022-09-15T12:54:04.602Z,3.80
2022-09-15T12:56:35.584Z,3.50
2022-09-15T12:59:13.975Z,4.80
2022-09-15T13:01:47.846Z,4.40
2022-09-15T13:05:03.497Z,3.60
2022-09-15T13:07:39.398Z,3.50
2022-09-15T13:10:09.365Z,4.20
2022-09-15T13:12:43.892Z,5.20
2022-09-15T13:15:16.127Z,4.30
2022-09-15T13:17:45.535Z,3.70
2022-09-15T13:20:23.193Z,3.20
2022-09-15T13:22:54.855Z,4.30
2022-09-15T13:25:29.333Z,3.10
2022-09-15T13:31:45.041Z,3.00
2022-09-15T13:35:04.199Z,2.80
2022-09-15T13:38:16.776Z,3.20
2022-09-15T13:41:24.411Z,2.80
2022-09-15T13:44:20.689Z,2.90
2022-09-15T13:47:19.132Z,5.00
2022-09-15T13:50:00.576Z,3.10
2022-09-15T13:53:14.862Z,4.00
2022-09-15T13:55:45.609Z,4.00
2022-09-15T14:01:49.915Z,2.90
2022-09-15T14:04:32.436Z,2.70
2022-09-15T14:07:33.778Z,2.70
2022-09-15T14:10:15.066Z,2.20
2022-09-15T14:13:00.231Z,3.70
2022-09-15T14:15:36.968Z,2.40
2022-09-15T14:18:45.279Z,4.10
2022-09-15T14:21:44.455Z,3.10
2022-09-15T14:24:20.929Z,2.90
2022-09-15T14:26:54.524Z,4.10
2022-09-15T14:29:35.196Z,3.70
2022-09-15T14:35:19.854Z,2.60
2022-09-15T14:38:00.498Z,3.90
2022-09-15T14:40:52.519Z,4.60
2022-09-15T14:43:41.858Z,3.80
2022-09-15T14:46:13.508Z,4.30
2022-09-15T14:48:44.118Z,4.20
2022-09-15T14:51:33.827Z,3.60
2022-09-15T14:54:04.825Z,4.50
2022-09-15T14:56:45.639Z,5.30
2022-09-15T14:59:27.214Z,7.70
2022-09-15T15:02:06.313Z,6.10
2022-09-15T15:04:40.948Z,5.40
2022-09-15T15:07:50.533Z,4.50
2022-09-15T15:10:26.836Z,5.00
2022-09-15T15:12:56.818Z,4.30
2022-09-15T15:15:26.813Z,5.50
2022-09-15T15:18:38.229Z,4.90
2022-09-15T15:21:48.669Z,6.10
2022-09-15T15:24:19.288Z,4.40
2022-09-15T15:26:49.108Z,5.80
2022-09-15T15:29:41.232Z,4.20
2022-09-15T15:32:21.964Z,8.40
2022-09-15T15:37:33.358Z,7.00
2022-09-15T15:40:15.056Z,5.60
2022-09-15T15:43:00.072Z,5.30
2022-09-15T15:45:32.042Z,5.40
2022-09-15T15:48:11.906Z,6.10
2022-09-15T15:50:44.657Z,4.40
2022-09-15T15:53:25.085Z,4.20
2022-09-15T15:55:58.007Z,4.70
2022-09-15T15:58:38.834Z,5.10
2022-09-15T16:01:15.948Z,6.40
2022-09-15T16:03:43.317Z,6.10
2022-09-15T16:06:11.117Z,4.10
2022-09-15T16:08:58.202Z,6.10
2022-09-15T16:11:29.174Z,5.00
2022-09-15T16:14:00.200Z,4.10
2022-09-15T16:16:31.003Z,5.30
2022-09-15T16:19:08.599Z,6.60
2022-09-15T16:21:46.844Z,5.10
2022-09-15T16:24:17.055Z,6.90
2022-09-15T16:26:44.530Z,7.60
2022-09-15T16:29:17.479Z,6.10
2022-09-15T16:31:45.106Z,6.80
2022-09-15T16:34:13.715Z,6.50
2022-09-15T16:36:41.122Z,7.30
2022-09-15T16:39:20.779Z,5.30
2022-09-15T16:41:48.138Z,7.30
2022-09-15T16:44:26.092Z,4.50
2022-09-15T16:46:56.533Z,5.00
2022-09-15T16:49:27.357Z,5.30
2022-09-15T16:54:22.780Z,4.90
2022-09-15T16:56:50.113Z,4.60
2022-09-15T16:59:17.953Z,4.70
2022-09-15T17:01:45.608Z,4.70
2022-09-15T17:04:19.260Z,4.00
2022-09-15T17:06:47.551Z,4.80
2022-09-15T17:09:14.644Z,4.30
2022-09-15T17:11:43.157Z,6.20
2022-09-15T17:14:14.926Z,4.80
2022-09-15T17:16:42.673Z,4.30
2022-09-15T17:19:19.138Z,6.30
2022-09-15T17:21:55.899Z,3.80
2022-09-15T17:24:29.795Z,4.90
2022-09-15T17:26:57.184Z,4.80
2022-09-15T17:29:24.841Z,4.80
2022-09-15T17:31:52.406Z,5.20
2022-09-15T17:34:19.859Z,4.10
2022-09-15T17:36:50.215Z,6.30
2022-09-15T17:39:21.656Z,3.70
2022-09-15T17:41:49.175Z,4.30
2022-09-15T17:44:17.062Z,4.90
2022-09-15T17:46:45.303Z,4.80
2022-09-15T17:49:12.611Z,5.10
2022-09-15T17:51:40.023Z,5.90
2022-09-15T17:54:09.953Z,4.90
2022-09-15T17:56:40.896Z,6.70
2022-09-15T17:59:13.065Z,8.60
2022-09-15T18:02:01.655Z,6.40
2022-09-15T18:04:29.706Z,7.30
2022-09-15T18:06:57.324Z,8.00
2022-09-15T18:09:27.044Z,9.10
2022-09-15T18:14:22.995Z,9.80
2022-09-15T18:16:53.213Z,10.40
2022-09-15T18:19:23.155Z,9.30
2022-09-15T18:21:53.220Z,10.70
2022-09-15T18:24:28.566Z,11.80
2022-09-15T18:26:56.155Z,19.40
2022-09-15T18:29:26.836Z,25.30
2022-09-15T18:32:03.742Z,24.00
2022-09-15T18:34:33.056Z,17.80
2022-09-15T18:37:00.670Z,27.30
2022-09-15T18:39:27.974Z,13.00
2022-09-15T18:41:55.501Z,17.60
2022-09-15T18:44:23.321Z,10.90
2022-09-15T18:46:50.732Z,11.70
2022-09-15T18:49:20.049Z,11.40
2022-09-15T18:51:51.655Z,8.70
2022-09-15T18:54:22.424Z,10.70
2022-09-15T18:56:53.013Z,9.50
2022-09-15T18:59:20.738Z,13.10
2022-09-15T19:01:48.325Z,14.80
2022-09-15T19:04:18.136Z,26.20
2022-09-15T19:06:45.900Z,11.70
2022-09-15T19:09:13.231Z,11.20
2022-09-15T19:11:43.255Z,8.70
2022-09-15T19:14:10.383Z,21.60
2022-09-15T19:16:56.610Z,19.00
2022-09-15T19:19:25.295Z,15.60
2022-09-15T19:21:55.175Z,11.60
2022-09-15T19:24:22.722Z,9.10
2022-09-15T19:26:51.007Z,10.00
2022-09-15T19:29:19.903Z,7.60
2022-09-15T19:31:47.412Z,11.90
2022-09-15T19:34:17.168Z,66.90
2022-09-15T19:36:44.834Z,54.30
2022-09-15T19:39:18.542Z,47.20
2022-09-15T19:41:45.935Z,14.90
2022-09-15T19:44:16.039Z,41.40
2022-09-15T19:46:43.709Z,15.10
2022-09-15T19:49:11.937Z,11.90
2022-09-15T19:51:39.232Z,10.90
2022-09-15T19:54:06.416Z,6.00
2022-09-15T19:56:34.460Z,9.00
2022-09-15T19:59:02.929Z,6.20
2022-09-15T20:01:30.499Z,7.50
2022-09-15T20:03:57.715Z,110.50
2022-09-15T20:06:37.270Z,77.70
2022-09-15T20:09:14.979Z,21.30
2022-09-15T20:11:42.104Z,53.90
2022-09-15T20:14:10.052Z,29.50
2022-09-15T20:16:44.367Z,19.50
2022-09-15T20:19:15.041Z,21.30
2022-09-15T20:21:51.186Z,11.30
2022-09-15T20:24:30.452Z,4.90
2022-09-15T20:27:03.898Z,16.10
2022-09-15T20:29:40.577Z,13.80
2022-09-15T20:32:16.214Z,7.90
2022-09-15T20:34:54.258Z,6.20
2022-09-15T20:37:24.926Z,9.20
2022-09-15T20:39:52.155Z,7.70
2022-09-15T20:42:34.654Z,8.60
2022-09-15T20:45:06.838Z,11.30
2022-09-15T20:47:47.295Z,6.90
2022-09-15T20:50:17.237Z,8.10
2022-09-15T20:54:47.991Z,5.60
2022-09-15T20:57:14.936Z,6.80
2022-09-15T20:59:42.033Z,5.60
2022-09-15T21:02:29.288Z,4.80
2022-09-15T21:04:57.286Z,4.50
2022-09-15T21:07:30.890Z,5.80
2022-09-15T21:10:11.770Z,4.70
2022-09-15T21:12:39.872Z,5.40
2022-09-15T21:15:23.627Z,3.70
2022-09-15T21:21:42.243Z,3.30
2022-09-15T21:24:27.452Z,3.40
2022-09-15T21:27:45.817Z,6.50
2022-09-15T21:30:23.490Z,3.40
2022-09-15T21:33:20.209Z,3.20
2022-09-15T21:35:48.610Z,6.30
2022-09-15T21:38:24.385Z,3.00
2022-09-15T21:40:57.734Z,3.10
2022-09-15T21:43:37.980Z,4.20
2022-09-15T21:46:21.549Z,3.70
2022-09-15T21:48:51.147Z,3.10
2022-09-15T21:51:24.560Z,3.80
2022-09-15T21:53:56.085Z,3.80
2022-09-15T21:56:26.804Z,3.90
2022-09-15T21:58:56.548Z,3.60
2022-09-15T22:01:42.040Z,4.30
2022-09-15T22:04:33.888Z,2.50
2022-09-15T22:07:06.850Z,2.70
2022-09-15T22:09:38.912Z,2.60
2022-09-15T22:12:16.552Z,3.10
2022-09-15T22:14:44.258Z,4.40
2022-09-15T22:17:21.219Z,3.60
2022-09-15T22:19:51.536Z,3.30
2022-09-15T22:22:21.279Z,3.30
2022-09-15T22:24:50.783Z,2.70
2022-09-15T22:27:36.465Z,3.20
2022-09-15T22:30:27.263Z,2.80
2022-09-15T22:32:59.061Z,4.20
2022-09-15T22:35:29.178Z,3.40
2022-09-15T22:38:16.392Z,2.80
2022-09-15T22:40:53.856Z,3.30
2022-09-15T22:43:21.123Z,3.40
2022-09-15T22:45:53.144Z,3.30
2022-09-15T22:48:20.295Z,3.70
2022-09-15T22:51:00.747Z,3.60
2022-09-15T22:53:35.571Z,3.50
2022-09-15T22:56:04.881Z,2.50
2022-09-15T22:58:35.708Z,3.90
2022-09-15T23:01:20.151Z,4.20
2022-09-15T23:03:57.277Z,3.20
2022-09-15T23:06:28.136Z,2.30
2022-09-15T23:09:07.440Z,2.10
2022-09-15T23:11:34.915Z,1.40
2022-09-15T23:14:14.433Z,2.90
2022-09-15T23:16:43.606Z,2.20
2022-09-15T23:19:16.153Z,4.60
2022-09-15T23:21:53.364Z,2.40
2022-09-15T23:24:23.553Z,2.60
2022-09-15T23:26:53.571Z,5.00
2022-09-15T23:29:25.528Z,2.40
2022-09-15T23:31:55.172Z,2.30
2022-09-15T23:34:35.969Z,2.10
2022-09-15T23:37:03.000Z,3.00
2022-09-15T23:39:34.652Z,2.40
2022-09-15T23:42:14.546Z,3.00
2022-09-15T23:44:51.259Z,1.90
2022-09-15T23:47:21.702Z,2.60
2022-09-15T23:50:00.839Z,5.20
2022-09-15T23:52:27.631Z,2.70
2022-09-15T23:55:06.088Z,3.40
2022-09-15T23:58:04.040Z,4.40
